sensor_id;sensor_type;location;lat;lon;timestamp;pressure;altitude;pressure_sealevel;temperature;humidity
65190;BME280;51777;53.570;9.984;2023-11-18T00:00:53;102140.09;;;5.07;100.00
65190;BME280;51777;53.570;9.984;2023-11-18T00:03:19;102147.13;;;5.04;100.00
65190;BME280;51777;53.570;9.984;2023-11-18T00:05:44;102143.13;;;5.15;100.00
65190;BME280;51777;53.570;9.984;2023-11-18T00:08:10;102141.25;;;5.19;100.00
65190;BME280;51777;53.570;9.984;2023-11-18T00:10:36;102138.38;;;5.25;100.00
65190;BME280;51777;53.570;9.984;2023-11-18T00:13:02;102128.13;;;5.25;100.00
65190;BME280;51777;53.570;9.984;2023-11-18T00:15:33;102128.78;;;5.28;100.00
65190;BME280;51777;53.570;9.984;2023-11-18T00:18:00;102136.25;;;5.33;100.00
65190;BME280;51777;53.570;9.984;2023-11-18T00:20:26;102128.44;;;5.36;100.00
65190;BME280;51777;53.570;9.984;2023-11-18T00:22:51;102130.06;;;5.37;100.00
65190;BME280;51777;53.570;9.984;2023-11-18T00:25:18;102142.81;;;5.39;100.00
65190;BME280;51777;53.570;9.984;2023-11-18T00:27:44;102136.94;;;5.37;100.00
65190;BME280;51777;53.570;9.984;2023-11-18T00:30:09;102128.25;;;5.39;100.00
65190;BME280;51777;53.570;9.984;2023-11-18T00:32:39;102135.03;;;5.40;100.00
65190;BME280;51777;53.570;9.984;2023-11-18T00:35:05;102143.66;;;5.39;100.00
65190;BME280;51777;53.570;9.984;2023-11-18T00:37:31;102146.28;;;5.38;100.00
65190;BME280;51777;53.570;9.984;2023-11-18T00:39:57;102148.78;;;5.39;100.00
65190;BME280;51777;53.570;9.984;2023-11-18T00:42:23;102141.91;;;5.40;100.00
65190;BME280;51777;53.570;9.984;2023-11-18T00:44:48;102146.88;;;5.43;100.00
65190;BME280;51777;53.570;9.984;2023-11-18T00:47:14;102139.09;;;5.44;100.00
65190;BME280;51777;53.570;9.984;2023-11-18T00:49:39;102143.41;;;5.44;100.00
65190;BME280;51777;53.570;9.984;2023-11-18T00:52:06;102147.72;;;5.43;100.00
65190;BME280;51777;53.570;9.984;2023-11-18T00:54:32;102149.44;;;5.43;100.00
65190;BME280;51777;53.570;9.984;2023-11-18T00:56:57;102143.41;;;5.44;100.00
65190;BME280;51777;53.570;9.984;2023-11-18T00:59:23;102153.53;;;5.47;100.00
65190;BME280;51777;53.570;9.984;2023-11-18T01:01:51;102150.06;;;5.48;100.00
65190;BME280;51777;53.570;9.984;2023-11-18T01:04:17;102150.06;;;5.48;100.00
65190;BME280;51777;53.570;9.984;2023-11-18T01:06:43;102152.53;;;5.49;100.00
65190;BME280;51777;53.570;9.984;2023-11-18T01:09:08;102147.41;;;5.49;100.00
65190;BME280;51777;53.570;9.984;2023-11-18T01:11:35;102148.25;;;5.50;100.00
65190;BME280;51777;53.570;9.984;2023-11-18T01:14:01;102152.47;;;5.51;100.00
65190;BME280;51777;53.570;9.984;2023-11-18T01:16:27;102161.97;;;5.49;100.00
65190;BME280;51777;53.570;9.984;2023-11-18T01:18:54;102160.25;;;5.49;100.00
65190;BME280;51777;53.570;9.984;2023-11-18T01:21:20;102158.59;;;5.48;100.00
65190;BME280;51777;53.570;9.984;2023-11-18T01:23:45;102161.97;;;5.49;100.00
65190;BME280;51777;53.570;9.984;2023-11-18T01:26:11;102159.41;;;5.49;100.00
65190;BME280;51777;53.570;9.984;2023-11-18T01:28:38;102153.53;;;5.47;100.00
65190;BME280;51777;53.570;9.984;2023-11-18T01:31:07;102153.53;;;5.47;100.00
65190;BME280;51777;53.570;9.984;2023-11-18T01:33:38;102153.53;;;5.47;100.00
65190;BME280;51777;53.570;9.984;2023-11-18T01:36:09;102148.41;;;5.47;100.00
65190;BME280;51777;53.570;9.984;2023-11-18T01:38:35;102150.13;;;5.46;100.00
65190;BME280;51777;53.570;9.984;2023-11-18T01:41:03;102149.31;;;5.46;100.00
65190;BME280;51777;53.570;9.984;2023-11-18T01:43:30;102140.75;;;5.45;100.00
65190;BME280;51777;53.570;9.984;2023-11-18T01:46:02;102159.56;;;5.46;100.00
65190;BME280;51777;53.570;9.984;2023-11-18T01:48:29;102157.00;;;5.46;100.00
65190;BME280;51777;53.570;9.984;2023-11-18T01:50:56;102163.00;;;5.45;100.00
65190;BME280;51777;53.570;9.984;2023-11-18T01:53:23;102155.66;;;5.39;100.00
65190;BME280;51777;53.570;9.984;2023-11-18T01:55:49;102159.03;;;5.39;100.00
65190;BME280;51777;53.570;9.984;2023-11-18T01:58:15;102161.34;;;5.44;100.00
65190;BME280;51777;53.570;9.984;2023-11-18T02:00:45;102162.13;;;5.46;100.00
65190;BME280;51777;53.570;9.984;2023-11-18T02:03:12;102163.72;;;5.48;100.00
65190;BME280;51777;53.570;9.984;2023-11-18T02:05:37;102172.22;;;5.49;100.00
65190;BME280;51777;53.570;9.984;2023-11-18T02:08:04;102177.19;;;5.52;100.00
65190;BME280;51777;53.570;9.984;2023-11-18T02:10:31;102179.59;;;5.55;100.00
65190;BME280;51777;53.570;9.984;2023-11-18T02:13:06;102169.50;;;5.52;100.00
65190;BME280;51777;53.570;9.984;2023-11-18T02:15:36;102178.94;;;5.51;100.00
65190;BME280;51777;53.570;9.984;2023-11-18T02:18:06;102177.19;;;5.52;100.00
65190;BME280;51777;53.570;9.984;2023-11-18T02:20:37;102180.50;;;5.54;100.00
65190;BME280;51777;53.570;9.984;2023-11-18T02:23:04;102185.81;;;5.51;100.00
65190;BME280;51777;53.570;9.984;2023-11-18T02:25:33;102186.47;;;5.54;100.00
65190;BME280;51777;53.570;9.984;2023-11-18T02:27:59;102181.19;;;5.57;100.00
65190;BME280;51777;53.570;9.984;2023-11-18T02:30:25;102181.88;;;5.44;100.00
65190;BME280;51777;53.570;9.984;2023-11-18T02:33:27;102188.53;;;5.48;100.00
65190;BME280;51777;53.570;9.984;2023-11-18T02:35:53;102193.78;;;5.45;100.00
65190;BME280;51777;53.570;9.984;2023-11-18T02:38:28;102200.44;;;5.31;100.00
65190;BME280;51777;53.570;9.984;2023-11-18T02:40:58;102192.53;;;5.19;100.00
65190;BME280;51777;53.570;9.984;2023-11-18T02:43:26;102193.75;;;5.12;100.00
65190;BME280;51777;53.570;9.984;2023-11-18T02:45:54;102199.03;;;5.09;100.00
65190;BME280;51777;53.570;9.984;2023-11-18T02:48:21;102198.16;;;5.08;100.00
65190;BME280;51777;53.570;9.984;2023-11-18T02:50:47;102201.78;;;5.04;100.00
65190;BME280;51777;53.570;9.984;2023-11-18T02:53:12;102202.41;;;5.09;100.00
65190;BME280;51777;53.570;9.984;2023-11-18T02:55:38;102209.47;;;5.04;100.00
65190;BME280;51777;53.570;9.984;2023-11-18T02:58:06;102204.97;;;5.09;100.00
65190;BME280;51777;53.570;9.984;2023-11-18T03:00:33;102207.22;;;5.15;100.00
65190;BME280;51777;53.570;9.984;2023-11-18T03:02:58;102204.22;;;5.24;100.00
65190;BME280;51777;53.570;9.984;2023-11-18T03:05:24;102209.19;;;5.27;100.00
65190;BME280;51777;53.570;9.984;2023-11-18T03:07:51;102209.34;;;5.24;100.00
65190;BME280;51777;53.570;9.984;2023-11-18T03:10:20;102202.56;;;5.23;100.00
65190;BME280;51777;53.570;9.984;2023-11-18T03:12:53;102209.88;;;5.14;100.00
65190;BME280;51777;53.570;9.984;2023-11-18T03:15:20;102194.56;;;5.12;100.00
65190;BME280;51777;53.570;9.984;2023-11-18T03:17:47;102190.03;;;5.00;100.00
65190;BME280;51777;53.570;9.984;2023-11-18T03:20:16;102191.91;;;4.96;100.00
65190;BME280;51777;53.570;9.984;2023-11-18T03:22:43;102192.28;;;4.89;100.00
65190;BME280;51777;53.570;9.984;2023-11-18T03:25:10;102194.38;;;4.81;100.00
65190;BME280;51777;53.570;9.984;2023-11-18T03:27:35;102195.66;;;4.72;100.00
65190;BME280;51777;53.570;9.984;2023-11-18T03:30:00;102190.94;;;4.63;100.00
65190;BME280;51777;53.570;9.984;2023-11-18T03:32:26;102190.94;;;4.63;100.00
65190;BME280;51777;53.570;9.984;2023-11-18T03:34:52;102193.97;;;4.71;100.00
65190;BME280;51777;53.570;9.984;2023-11-18T03:37:17;102202.50;;;4.71;100.00
65190;BME280;51777;53.570;9.984;2023-11-18T03:39:44;102201.28;;;4.79;100.00
65190;BME280;51777;53.570;9.984;2023-11-18T03:42:10;102194.09;;;4.87;100.00
65190;BME280;51777;53.570;9.984;2023-11-18T03:44:36;102201.84;;;4.85;100.00
65190;BME280;51777;53.570;9.984;2023-11-18T03:47:02;102196.72;;;4.85;100.00
65190;BME280;51777;53.570;9.984;2023-11-18T03:49:28;102201.59;;;4.72;100.00
65190;BME280;51777;53.570;9.984;2023-11-18T03:51:53;102205.00;;;4.54;100.00
65190;BME280;51777;53.570;9.984;2023-11-18T03:54:20;102213.59;;;4.53;100.00
65190;BME280;51777;53.570;9.984;2023-11-18T03:56:45;102211.03;;;4.53;100.00
65190;BME280;51777;53.570;9.984;2023-11-18T03:59:10;102208.47;;;4.53;100.00
65190;BME280;51777;53.570;9.984;2023-11-18T04:01:36;102204.09;;;4.55;100.00
65190;BME280;51777;53.570;9.984;2023-11-18T04:04:01;102200.38;;;4.62;100.00
65190;BME280;51777;53.570;9.984;2023-11-18T04:06:27;102199.06;;;4.71;100.00
65190;BME280;51777;53.570;9.984;2023-11-18T04:08:52;102205.44;;;4.81;100.00
65190;BME280;51777;53.570;9.984;2023-11-18T04:11:18;102198.31;;;4.88;100.00
65190;BME280;51777;53.570;9.984;2023-11-18T04:13:44;102206.00;;;4.88;100.00
65190;BME280;51777;53.570;9.984;2023-11-18T04:16:10;102201.03;;;4.85;100.00
65190;BME280;51777;53.570;9.984;2023-11-18T04:18:41;102198.38;;;4.86;100.00
65190;BME280;51777;53.570;9.984;2023-11-18T04:21:11;102202.53;;;4.89;100.00
65190;BME280;51777;53.570;9.984;2023-11-18T04:23:37;102200.56;;;4.94;100.00
65190;BME280;51777;53.570;9.984;2023-11-18T04:26:04;102203.88;;;4.96;100.00
65190;BME280;51777;53.570;9.984;2023-11-18T04:28:30;102205.69;;;4.94;100.00
65190;BME280;51777;53.570;9.984;2023-11-18T04:30:56;102210.88;;;4.92;100.00
65190;BME280;51777;53.570;9.984;2023-11-18T04:33:21;102210.69;;;4.97;100.00
65190;BME280;51777;53.570;9.984;2023-11-18T04:35:50;102200.50;;;4.95;100.00
65190;BME280;51777;53.570;9.984;2023-11-18T04:38:15;102198.16;;;4.91;100.00
65190;BME280;51777;53.570;9.984;2023-11-18T04:40:41;102199.22;;;4.87;100.00
65190;BME280;51777;53.570;9.984;2023-11-18T04:43:07;102202.69;;;4.86;100.00
65190;BME280;51777;53.570;9.984;2023-11-18T04:45:36;102201.72;;;4.69;100.00
65190;BME280;51777;53.570;9.984;2023-11-18T04:48:03;102196.06;;;4.63;100.00
65190;BME280;51777;53.570;9.984;2023-11-18T04:50:29;102203.00;;;4.61;100.00
65190;BME280;51777;53.570;9.984;2023-11-18T04:52:58;102207.13;;;4.45;100.00
65190;BME280;51777;53.570;9.984;2023-11-18T04:55:23;102200.56;;;4.39;100.00
65190;BME280;51777;53.570;9.984;2023-11-18T04:57:51;102196.28;;;4.39;100.00
65190;BME280;51777;53.570;9.984;2023-11-18T05:00:17;102207.34;;;4.40;100.00
65190;BME280;51777;53.570;9.984;2023-11-18T05:02:45;102212.53;;;4.20;100.00
65190;BME280;51777;53.570;9.984;2023-11-18T05:05:15;102204.38;;;4.11;100.00
65190;BME280;51777;53.570;9.984;2023-11-18T05:07:42;102200.16;;;4.10;100.00
65190;BME280;51777;53.570;9.984;2023-11-18T05:10:08;102199.19;;;4.13;100.00
65190;BME280;51777;53.570;9.984;2023-11-18T05:12:35;102190.47;;;4.17;100.00
65190;BME280;51777;53.570;9.984;2023-11-18T05:15:01;102186.94;;;4.20;100.00
65190;BME280;51777;53.570;9.984;2023-11-18T05:17:29;102170.06;;;4.16;100.00
65190;BME280;51777;53.570;9.984;2023-11-18T05:19:55;102173.84;;;4.07;100.00
65190;BME280;51777;53.570;9.984;2023-11-18T05:22:20;102169.78;;;4.03;100.00
65190;BME280;51777;53.570;9.984;2023-11-18T05:24:46;102175.13;;;3.98;100.00
65190;BME280;51777;53.570;9.984;2023-11-18T05:27:14;102170.00;;;3.98;100.00
65190;BME280;51777;53.570;9.984;2023-11-18T05:29:39;102168.34;;;3.97;100.00
65190;BME280;51777;53.570;9.984;2023-11-18T05:32:10;102170.94;;;3.96;100.00
65190;BME280;51777;53.570;9.984;2023-11-18T05:34:36;102164.38;;;3.90;100.00
65190;BME280;51777;53.570;9.984;2023-11-18T05:37:01;102164.44;;;3.89;100.00
65190;BME280;51777;53.570;9.984;2023-11-18T05:39:27;102158.28;;;3.93;100.00
65190;BME280;51777;53.570;9.984;2023-11-18T05:41:56;102165.81;;;3.96;100.00
65190;BME280;51777;53.570;9.984;2023-11-18T05:44:22;102161.50;;;3.98;100.00
65190;BME280;51777;53.570;9.984;2023-11-18T05:46:57;102162.94;;;4.03;100.00
65190;BME280;51777;53.570;9.984;2023-11-18T05:49:22;102163.34;;;4.13;100.00
65190;BME280;51777;53.570;9.984;2023-11-18T05:51:49;102153.72;;;4.18;100.00
65190;BME280;51777;53.570;9.984;2023-11-18T05:54:15;102158.69;;;4.21;100.00
65190;BME280;51777;53.570;9.984;2023-11-18T05:56:41;102156.22;;;4.20;100.00
65190;BME280;51777;53.570;9.984;2023-11-18T05:59:06;102154.56;;;4.19;100.00
65190;BME280;51777;53.570;9.984;2023-11-18T06:01:33;102160.31;;;4.24;100.00
65190;BME280;51777;53.570;9.984;2023-11-18T06:04:03;102151.03;;;4.21;100.00
65190;BME280;51777;53.570;9.984;2023-11-18T06:06:28;102148.28;;;4.26;100.00
65190;BME280;51777;53.570;9.984;2023-11-18T06:08:56;102149.19;;;4.25;100.00
65190;BME280;51777;53.570;9.984;2023-11-18T06:11:24;102152.16;;;4.34;100.00
65190;BME280;51777;53.570;9.984;2023-11-18T06:13:51;102153.59;;;4.40;100.00
65190;BME280;51777;53.570;9.984;2023-11-18T06:18:46;102149.31;;;4.22;100.00
65190;BME280;51777;53.570;9.984;2023-11-18T06:21:14;102155.19;;;4.24;100.00
65190;BME280;51777;53.570;9.984;2023-11-18T06:23:40;102149.19;;;4.25;100.00
65190;BME280;51777;53.570;9.984;2023-11-18T06:26:06;102144.13;;;4.23;100.00
65190;BME280;51777;53.570;9.984;2023-11-18T06:28:31;102140.78;;;4.21;100.00
65190;BME280;51777;53.570;9.984;2023-11-18T06:30:59;102137.53;;;4.18;100.00
65190;BME280;51777;53.570;9.984;2023-11-18T06:33:26;102141.00;;;4.17;100.00
65190;BME280;51777;53.570;9.984;2023-11-18T06:35:53;102151.25;;;4.17;100.00
65190;BME280;51777;53.570;9.984;2023-11-18T06:38:20;102151.25;;;4.17;100.00
65190;BME280;51777;53.570;9.984;2023-11-18T06:40:47;102147.03;;;4.16;100.00
65190;BME280;51777;53.570;9.984;2023-11-18T06:43:22;102141.69;;;4.20;100.00
65190;BME280;51777;53.570;9.984;2023-11-18T06:46:01;102141.34;;;4.28;100.00
65190;BME280;51777;53.570;9.984;2023-11-18T06:48:29;102149.63;;;4.33;100.00
65190;BME280;51777;53.570;9.984;2023-11-18T06:50:54;102156.06;;;4.41;100.00
65190;BME280;51777;53.570;9.984;2023-11-18T06:53:20;102155.16;;;4.42;100.00
65190;BME280;51777;53.570;9.984;2023-11-18T06:55:45;102158.09;;;4.35;100.00
65190;BME280;51777;53.570;9.984;2023-11-18T06:58:11;102166.31;;;4.41;100.00
65190;BME280;51777;53.570;9.984;2023-11-18T07:00:38;102168.66;;;4.46;100.00
65190;BME280;51777;53.570;9.984;2023-11-18T07:03:03;102170.25;;;4.49;100.00
65190;BME280;51777;53.570;9.984;2023-11-18T07:05:30;102181.19;;;4.52;100.00
65190;BME280;51777;53.570;9.984;2023-11-18T07:07:56;102184.34;;;4.57;100.00
65190;BME280;51777;53.570;9.984;2023-11-18T07:10:21;102198.56;;;4.64;100.00
65190;BME280;51777;53.570;9.984;2023-11-18T07:12:47;102203.25;;;4.74;100.00
65190;BME280;51777;53.570;9.984;2023-11-18T07:15:15;102211.69;;;4.76;100.00
65190;BME280;51777;53.570;9.984;2023-11-18T07:17:41;102217.06;;;4.88;100.00
65190;BME280;51777;53.570;9.984;2023-11-18T07:20:17;102208.13;;;4.97;100.00
65190;BME280;51777;53.570;9.984;2023-11-18T07:22:43;102205.25;;;5.03;100.00
65190;BME280;51777;53.570;9.984;2023-11-18T07:25:08;102204.28;;;5.06;100.00
65190;BME280;51777;53.570;9.984;2023-11-18T07:27:35;102209.94;;;5.12;100.00
65190;BME280;51777;53.570;9.984;2023-11-18T07:30:01;102198.56;;;5.18;100.00
65190;BME280;51777;53.570;9.984;2023-11-18T07:32:26;102195.78;;;5.22;100.00
65190;BME280;51777;53.570;9.984;2023-11-18T07:34:53;102183.78;;;5.23;100.00
65190;BME280;51777;53.570;9.984;2023-11-18T07:37:21;102177.75;;;5.24;100.00
65190;BME280;51777;53.570;9.984;2023-11-18T07:39:46;102187.03;;;5.26;100.00
65190;BME280;51777;53.570;9.984;2023-11-18T07:42:14;102198.94;;;5.27;100.00
65190;BME280;51777;53.570;9.984;2023-11-18T07:44:43;102204.53;;;5.36;100.00
65190;BME280;51777;53.570;9.984;2023-11-18T07:47:09;102219.16;;;5.51;100.00
65190;BME280;51777;53.570;9.984;2023-11-18T07:49:35;102208.44;;;5.60;100.00
65190;BME280;51777;53.570;9.984;2023-11-18T07:52:02;102208.44;;;5.60;100.00
65190;BME280;51777;53.570;9.984;2023-11-18T07:54:27;102207.22;;;5.67;100.00
65190;BME280;51777;53.570;9.984;2023-11-18T07:56:52;102213.25;;;5.66;100.00
65190;BME280;51777;53.570;9.984;2023-11-18T07:59:19;102210.59;;;5.68;100.00
65190;BME280;51777;53.570;9.984;2023-11-18T08:01:45;102205.84;;;5.77;100.00
65190;BME280;51777;53.570;9.984;2023-11-18T08:04:12;102200.78;;;5.76;100.00
65190;BME280;51777;53.570;9.984;2023-11-18T08:06:39;102204.03;;;5.97;100.00
65190;BME280;51777;53.570;9.984;2023-11-18T08:09:04;102204.44;;;6.05;100.00
65190;BME280;51777;53.570;9.984;2023-11-18T08:11:35;102194.16;;;6.05;100.00
65190;BME280;51777;53.570;9.984;2023-11-18T08:14:00;102197.66;;;6.04;100.00
65190;BME280;51777;53.570;9.984;2023-11-18T08:16:27;102205.19;;;6.07;100.00
65190;BME280;51777;53.570;9.984;2023-11-18T08:18:52;102204.03;;;5.97;100.00
65190;BME280;51777;53.570;9.984;2023-11-18T08:21:19;102200.06;;;5.89;100.00
65190;BME280;51777;53.570;9.984;2023-11-18T08:23:44;102200.84;;;5.92;100.00
65190;BME280;51777;53.570;9.984;2023-11-18T08:26:11;102204.78;;;5.99;100.00
65190;BME280;51777;53.570;9.984;2023-11-18T08:28:37;102198.25;;;6.09;100.00
65190;BME280;51777;53.570;9.984;2023-11-18T08:31:02;102194.78;;;6.10;100.00
65190;BME280;51777;53.570;9.984;2023-11-18T08:33:28;102200.56;;;6.13;100.00
65190;BME280;51777;53.570;9.984;2023-11-18T08:35:54;102188.81;;;6.09;100.00
65190;BME280;51777;53.570;9.984;2023-11-18T08:38:19;102187.06;;;6.10;100.00
65190;BME280;51777;53.570;9.984;2023-11-18T08:40:45;102177.28;;;6.01;100.00
65190;BME280;51777;53.570;9.984;2023-11-18T08:43:13;102177.16;;;5.86;100.00
65190;BME280;51777;53.570;9.984;2023-11-18T08:45:38;102177.69;;;5.76;100.00
65190;BME280;51777;53.570;9.984;2023-11-18T08:48:04;102179.72;;;5.69;100.00
65190;BME280;51777;53.570;9.984;2023-11-18T08:50:34;102170.06;;;5.74;100.00
65190;BME280;51777;53.570;9.984;2023-11-18T08:53:00;102160.84;;;5.70;100.00
65190;BME280;51777;53.570;9.984;2023-11-18T08:55:31;102172.47;;;5.77;100.00
65190;BME280;51777;53.570;9.984;2023-11-18T08:58:15;102171.47;;;5.80;100.00
65190;BME280;51777;53.570;9.984;2023-11-18T09:00:51;102169.66;;;5.82;100.00
65190;BME280;51777;53.570;9.984;2023-11-18T09:03:22;102165.22;;;5.85;100.00
65190;BME280;51777;53.570;9.984;2023-11-18T09:05:54;102168.41;;;5.91;100.00
65190;BME280;51777;53.570;9.984;2023-11-18T09:08:27;102178.38;;;5.97;100.00
65190;BME280;51777;53.570;9.984;2023-11-18T09:10:56;102173.13;;;5.98;100.00
65190;BME280;51777;53.570;9.984;2023-11-18T09:13:26;102161.75;;;5.86;100.00
65190;BME280;51777;53.570;9.984;2023-11-18T09:15:59;102154.94;;;5.85;100.00
65190;BME280;51777;53.570;9.984;2023-11-18T09:18:29;102148.91;;;5.86;100.00
65190;BME280;51777;53.570;9.984;2023-11-18T09:20:59;102147.78;;;5.92;100.00
65190;BME280;51777;53.570;9.984;2023-11-18T09:23:26;102149.66;;;5.88;100.00
65190;BME280;51777;53.570;9.984;2023-11-18T09:25:53;102156.81;;;5.99;100.00
65190;BME280;51777;53.570;9.984;2023-11-18T09:28:20;102159.69;;;5.93;100.00
65190;BME280;51777;53.570;9.984;2023-11-18T09:30:46;102151.78;;;5.98;100.00
65190;BME280;51777;53.570;9.984;2023-11-18T09:33:18;102148.88;;;6.04;100.00
65190;BME280;51777;53.570;9.984;2023-11-18T09:35:52;102148.03;;;6.03;100.00
65190;BME280;51777;53.570;9.984;2023-11-18T09:38:17;102146.47;;;6.01;100.00
65190;BME280;51777;53.570;9.984;2023-11-18T09:40:43;102146.63;;;5.98;100.00
65190;BME280;51777;53.570;9.984;2023-11-18T09:43:11;102154.94;;;5.85;100.00
65190;BME280;51777;53.570;9.984;2023-11-18T09:45:39;102157.22;;;5.92;100.00
65190;BME280;51777;53.570;9.984;2023-11-18T09:48:06;102156.44;;;5.89;100.00
65190;BME280;51777;53.570;9.984;2023-11-18T09:50:33;102157.13;;;5.93;100.00
65190;BME280;51777;53.570;9.984;2023-11-18T09:53:01;102157.03;;;5.95;100.00
65190;BME280;51777;53.570;9.984;2023-11-18T09:55:40;102150.53;;;6.05;100.00
65190;BME280;51777;53.570;9.984;2023-11-18T09:58:15;102151.25;;;6.07;100.00
65190;BME280;51777;53.570;9.984;2023-11-18T10:00:41;102144.91;;;5.98;100.00
65190;BME280;51777;53.570;9.984;2023-11-18T10:03:08;102137.28;;;5.79;100.00
65190;BME280;51777;53.570;9.984;2023-11-18T10:05:36;102140.59;;;5.81;100.00
65190;BME280;51777;53.570;9.984;2023-11-18T10:08:05;102142.50;;;5.78;100.00
65190;BME280;51777;53.570;9.984;2023-11-18T10:10:34;102139.91;;;5.95;100.00
65190;BME280;51777;53.570;9.984;2023-11-18T10:13:04;102146.13;;;6.07;100.00
65190;BME280;51777;53.570;9.984;2023-11-18T10:15:47;102149.66;;;5.88;100.00
65190;BME280;51777;53.570;9.984;2023-11-18T10:18:14;102137.00;;;5.85;100.00
65190;BME280;51777;53.570;9.984;2023-11-18T10:20:50;102129.88;;;5.91;100.00
65190;BME280;51777;53.570;9.984;2023-11-18T10:23:18;102126.75;;;6.01;100.00
65190;BME280;51777;53.570;9.984;2023-11-18T10:25:48;102117.88;;;6.07;100.00
65190;BME280;51777;53.570;9.984;2023-11-18T10:30:47;102106.78;;;5.91;100.00
65190;BME280;51777;53.570;9.984;2023-11-18T10:33:14;102113.28;;;5.98;100.00
65190;BME280;51777;53.570;9.984;2023-11-18T10:35:49;102107.97;;;6.01;100.00
65190;BME280;51777;53.570;9.984;2023-11-18T10:38:21;102101.19;;;6.00;100.00
65190;BME280;51777;53.570;9.984;2023-11-18T10:40:52;102095.69;;;6.06;100.00
65190;BME280;51777;53.570;9.984;2023-11-18T10:43:18;102093.94;;;6.06;100.00
65190;BME280;51777;53.570;9.984;2023-11-18T10:45:44;102096.03;;;6.00;100.00
65190;BME280;51777;53.570;9.984;2023-11-18T10:48:12;102099.53;;;5.99;100.00
65190;BME280;51777;53.570;9.984;2023-11-18T10:50:42;102101.59;;;6.08;100.00
65190;BME280;51777;53.570;9.984;2023-11-18T10:53:08;102097.13;;;6.11;100.00
65190;BME280;51777;53.570;9.984;2023-11-18T10:55:37;102110.78;;;6.12;100.00
65190;BME280;51777;53.570;9.984;2023-11-18T10:58:06;102092.91;;;6.10;100.00
65190;BME280;51777;53.570;9.984;2023-11-18T11:00:49;102084.94;;;6.15;100.00
65190;BME280;51777;53.570;9.984;2023-11-18T11:03:17;102076.13;;;6.19;100.00
65190;BME280;51777;53.570;9.984;2023-11-18T11:05:43;102068.53;;;6.17;100.00
65190;BME280;51777;53.570;9.984;2023-11-18T11:08:13;102052.06;;;6.22;100.00
65190;BME280;51777;53.570;9.984;2023-11-18T11:10:43;102050.03;;;6.27;100.00
65190;BME280;51777;53.570;9.984;2023-11-18T11:13:09;102045.81;;;6.26;100.00
65190;BME280;51777;53.570;9.984;2023-11-18T11:15:43;102045.19;;;6.22;100.00
65190;BME280;51777;53.570;9.984;2023-11-18T11:18:21;102051.78;;;6.26;100.00
65190;BME280;51777;53.570;9.984;2023-11-18T11:21:07;102038.44;;;6.19;100.00
65190;BME280;51777;53.570;9.984;2023-11-18T11:23:55;102042.25;;;6.28;100.00
65190;BME280;51777;53.570;9.984;2023-11-18T11:26:50;102036.22;;;6.13;100.00
65190;BME280;51777;53.570;9.984;2023-11-18T11:29:43;102027.53;;;6.16;100.00
65190;BME280;51777;53.570;9.984;2023-11-18T11:32:29;102015.59;;;6.15;100.00
65190;BME280;51777;53.570;9.984;2023-11-18T11:35:01;102006.75;;;6.21;100.00
65190;BME280;51777;53.570;9.984;2023-11-18T11:37:33;102005.59;;;6.40;100.00
65190;BME280;51777;53.570;9.984;2023-11-18T11:40:00;102007.66;;;6.50;100.00
65190;BME280;51777;53.570;9.984;2023-11-18T11:42:34;102007.50;;;6.67;100.00
65190;BME280;51777;53.570;9.984;2023-11-18T11:45:00;102004.59;;;6.73;100.00
65190;BME280;51777;53.570;9.984;2023-11-18T11:47:28;102003.88;;;6.85;100.00
65190;BME280;51777;53.570;9.984;2023-11-18T11:50:30;101999.25;;;6.90;100.00
65190;BME280;51777;53.570;9.984;2023-11-18T11:53:11;102001.50;;;6.96;100.00
65190;BME280;51777;53.570;9.984;2023-11-18T11:55:46;101994.69;;;6.95;100.00
65190;BME280;51777;53.570;9.984;2023-11-18T11:58:32;101993.16;;;7.07;100.00
65190;BME280;51777;53.570;9.984;2023-11-18T12:01:02;101987.88;;;6.94;100.00
65190;BME280;51777;53.570;9.984;2023-11-18T12:03:40;101985.25;;;6.96;100.00
65190;BME280;51777;53.570;9.984;2023-11-18T12:06:08;101989.06;;;6.89;100.00
65190;BME280;51777;53.570;9.984;2023-11-18T12:08:37;101991.81;;;6.71;100.00
65190;BME280;51777;53.570;9.984;2023-11-18T12:11:04;101989.81;;;6.76;100.00
65190;BME280;51777;53.570;9.984;2023-11-18T12:13:35;101994.75;;;6.80;100.00
65190;BME280;51777;53.570;9.984;2023-11-18T12:16:05;101991.38;;;6.93;100.00
65190;BME280;51777;53.570;9.984;2023-11-18T12:18:31;101984.22;;;6.70;100.00
65190;BME280;51777;53.570;9.984;2023-11-18T12:21:02;101988.63;;;6.82;100.00
65190;BME280;51777;53.570;9.984;2023-11-18T12:23:29;101984.47;;;6.80;100.00
65190;BME280;51777;53.570;9.984;2023-11-18T12:25:56;101981.91;;;6.80;100.00
65190;BME280;51777;53.570;9.984;2023-11-18T12:28:26;101968.31;;;6.77;100.00
65190;BME280;51777;53.570;9.984;2023-11-18T12:30:53;101960.16;;;6.85;100.00
65190;BME280;51777;53.570;9.984;2023-11-18T12:33:23;101964.72;;;6.80;100.00
65190;BME280;51777;53.570;9.984;2023-11-18T12:41:26;101985.25;;;6.96;100.00
65190;BME280;51777;53.570;9.984;2023-11-18T12:44:29;101984.03;;;6.73;100.00
65190;BME280;51777;53.570;9.984;2023-11-18T12:47:01;101976.66;;;6.67;100.00
65190;BME280;51777;53.570;9.984;2023-11-18T12:49:47;101980.53;;;6.74;100.00
65190;BME280;51777;53.570;9.984;2023-11-18T12:52:20;101976.75;;;6.80;100.00
65190;BME280;51777;53.570;9.984;2023-11-18T12:54:47;101981.66;;;6.84;100.00
65190;BME280;51777;53.570;9.984;2023-11-18T12:57:36;101979.09;;;6.84;100.00
65190;BME280;51777;53.570;9.984;2023-11-18T13:00:04;101982.00;;;6.78;100.00
65190;BME280;51777;53.570;9.984;2023-11-18T13:02:31;101967.88;;;6.85;100.00
65190;BME280;51777;53.570;9.984;2023-11-18T13:04:57;101965.66;;;6.93;100.00
65190;BME280;51777;53.570;9.984;2023-11-18T13:07:22;101959.34;;;6.85;100.00